sensor_id;sensor_type;location;lat;lon;timestamp;P1;durP1;ratioP1;P2;durP2;ratioP2
21979;SDS011;11154;48.558;9.234;2024-02-21T00:01:30;11.10;;;5.22;;
21979;SDS011;11154;48.558;9.234;2024-02-21T00:03:32;11.60;;;5.10;;
21979;SDS011;11154;48.558;9.234;2024-02-21T00:05:33;10.73;;;4.63;;
21979;SDS011;11154;48.558;9.234;2024-02-21T00:07:35;9.10;;;4.40;;
21979;SDS011;11154;48.558;9.234;2024-02-21T00:09:36;11.23;;;5.18;;
21979;SDS011;11154;48.558;9.234;2024-02-21T00:11:39;14.43;;;5.05;;
21979;SDS011;11154;48.558;9.234;2024-02-21T00:13:40;12.70;;;5.10;;
21979;SDS011;11154;48.558;9.234;2024-02-21T00:15:42;11.30;;;5.15;;
21979;SDS011;11154;48.558;9.234;2024-02-21T00:17:44;8.38;;;5.07;;
21979;SDS011;11154;48.558;9.234;2024-02-21T00:19:45;13.88;;;4.50;;
21979;SDS011;11154;48.558;9.234;2024-02-21T00:21:47;13.15;;;5.10;;
21979;SDS011;11154;48.558;9.234;2024-02-21T00:23:48;10.68;;;4.97;;
21979;SDS011;11154;48.558;9.234;2024-02-21T00:25:50;12.68;;;4.85;;
21979;SDS011;11154;48.558;9.234;2024-02-21T00:27:53;14.07;;;5.97;;
21979;SDS011;11154;48.558;9.234;2024-02-21T00:29:54;10.30;;;4.75;;
21979;SDS011;11154;48.558;9.234;2024-02-21T00:31:55;10.65;;;5.40;;
21979;SDS011;11154;48.558;9.234;2024-02-21T00:33:57;12.48;;;4.70;;
21979;SDS011;11154;48.558;9.234;2024-02-21T00:35:59;9.68;;;4.70;;
21979;SDS011;11154;48.558;9.234;2024-02-21T00:38:00;12.27;;;4.70;;
21979;SDS011;11154;48.558;9.234;2024-02-21T00:40:03;11.15;;;4.60;;
21979;SDS011;11154;48.558;9.234;2024-02-21T00:42:06;13.27;;;4.50;;
21979;SDS011;11154;48.558;9.234;2024-02-21T00:44:09;10.52;;;4.30;;
21979;SDS011;11154;48.558;9.234;2024-02-21T00:46:11;12.73;;;4.35;;
21979;SDS011;11154;48.558;9.234;2024-02-21T00:48:12;11.80;;;4.50;;
21979;SDS011;11154;48.558;9.234;2024-02-21T00:50:14;10.77;;;4.75;;
21979;SDS011;11154;48.558;9.234;2024-02-21T00:52:15;9.10;;;4.72;;
21979;SDS011;11154;48.558;9.234;2024-02-21T00:54:18;12.38;;;4.88;;
21979;SDS011;11154;48.558;9.234;2024-02-21T00:56:19;13.50;;;4.90;;
21979;SDS011;11154;48.558;9.234;2024-02-21T00:58:21;10.88;;;4.15;;
21979;SDS011;11154;48.558;9.234;2024-02-21T01:00:24;11.52;;;4.80;;
21979;SDS011;11154;48.558;9.234;2024-02-21T01:02:26;9.98;;;4.45;;
21979;SDS011;11154;48.558;9.234;2024-02-21T01:04:26;9.50;;;4.30;;
21979;SDS011;11154;48.558;9.234;2024-02-21T01:06:28;12.70;;;4.40;;
21979;SDS011;11154;48.558;9.234;2024-02-21T01:08:29;11.57;;;4.05;;
21979;SDS011;11154;48.558;9.234;2024-02-21T01:10:31;9.48;;;3.92;;
21979;SDS011;11154;48.558;9.234;2024-02-21T01:12:33;12.57;;;3.92;;
21979;SDS011;11154;48.558;9.234;2024-02-21T01:14:34;8.10;;;3.88;;
21979;SDS011;11154;48.558;9.234;2024-02-21T01:16:37;12.43;;;3.97;;
21979;SDS011;11154;48.558;9.234;2024-02-21T01:18:39;10.27;;;3.80;;
21979;SDS011;11154;48.558;9.234;2024-02-21T01:20:40;9.05;;;3.90;;
21979;SDS011;11154;48.558;9.234;2024-02-21T01:22:42;9.05;;;3.65;;
21979;SDS011;11154;48.558;9.234;2024-02-21T01:24:44;9.48;;;3.40;;
21979;SDS011;11154;48.558;9.234;2024-02-21T01:26:45;8.45;;;3.92;;
21979;SDS011;11154;48.558;9.234;2024-02-21T01:28:47;10.70;;;4.63;;
21979;SDS011;11154;48.558;9.234;2024-02-21T01:30:48;7.53;;;3.47;;
21979;SDS011;11154;48.558;9.234;2024-02-21T01:32:51;8.27;;;4.10;;
21979;SDS011;11154;48.558;9.234;2024-02-21T01:34:52;9.80;;;4.25;;
21979;SDS011;11154;48.558;9.234;2024-02-21T01:36:54;10.20;;;3.92;;
21979;SDS011;11154;48.558;9.234;2024-02-21T01:38:56;8.35;;;3.70;;
21979;SDS011;11154;48.558;9.234;2024-02-21T01:40:57;11.07;;;3.88;;
21979;SDS011;11154;48.558;9.234;2024-02-21T01:42:59;10.70;;;3.95;;
21979;SDS011;11154;48.558;9.234;2024-02-21T01:45:01;6.85;;;3.38;;
21979;SDS011;11154;48.558;9.234;2024-02-21T01:47:02;10.75;;;4.63;;
21979;SDS011;11154;48.558;9.234;2024-02-21T01:49:05;6.32;;;3.28;;
21979;SDS011;11154;48.558;9.234;2024-02-21T01:51:07;7.75;;;3.50;;
21979;SDS011;11154;48.558;9.234;2024-02-21T01:53:09;9.93;;;3.90;;
21979;SDS011;11154;48.558;9.234;2024-02-21T01:55:11;8.07;;;3.38;;
21979;SDS011;11154;48.558;9.234;2024-02-21T01:57:14;8.43;;;3.50;;
21979;SDS011;11154;48.558;9.234;2024-02-21T01:59:16;9.75;;;3.90;;
21979;SDS011;11154;48.558;9.234;2024-02-21T02:01:19;4.55;;;3.30;;
21979;SDS011;11154;48.558;9.234;2024-02-21T02:03:22;8.20;;;3.80;;
21979;SDS011;11154;48.558;9.234;2024-02-21T02:05:26;7.95;;;4.40;;
21979;SDS011;11154;48.558;9.234;2024-02-21T02:07:28;8.13;;;3.85;;
21979;SDS011;11154;48.558;9.234;2024-02-21T02:09:30;7.93;;;4.10;;
21979;SDS011;11154;48.558;9.234;2024-02-21T02:11:31;7.88;;;4.60;;
21979;SDS011;11154;48.558;9.234;2024-02-21T02:13:33;8.05;;;4.32;;
21979;SDS011;11154;48.558;9.234;2024-02-21T02:15:38;7.18;;;4.75;;
21979;SDS011;11154;48.558;9.234;2024-02-21T02:17:39;8.63;;;4.30;;
21979;SDS011;11154;48.558;9.234;2024-02-21T02:19:41;7.97;;;4.50;;
21979;SDS011;11154;48.558;9.234;2024-02-21T02:21:45;9.10;;;4.90;;
21979;SDS011;11154;48.558;9.234;2024-02-21T02:23:54;11.15;;;4.85;;
21979;SDS011;11154;48.558;9.234;2024-02-21T02:25:56;7.15;;;4.53;;
21979;SDS011;11154;48.558;9.234;2024-02-21T02:27:58;8.25;;;4.50;;
21979;SDS011;11154;48.558;9.234;2024-02-21T02:30:00;9.60;;;4.93;;
21979;SDS011;11154;48.558;9.234;2024-02-21T02:32:01;9.43;;;4.40;;
21979;SDS011;11154;48.558;9.234;2024-02-21T02:34:02;7.80;;;4.50;;
21979;SDS011;11154;48.558;9.234;2024-02-21T02:36:05;8.85;;;4.75;;
21979;SDS011;11154;48.558;9.234;2024-02-21T02:38:07;9.35;;;4.32;;
21979;SDS011;11154;48.558;9.234;2024-02-21T02:40:10;10.73;;;5.03;;
21979;SDS011;11154;48.558;9.234;2024-02-21T02:42:12;10.82;;;5.35;;
21979;SDS011;11154;48.558;9.234;2024-02-21T02:44:14;10.18;;;4.88;;
21979;SDS011;11154;48.558;9.234;2024-02-21T02:46:16;8.65;;;4.40;;
21979;SDS011;11154;48.558;9.234;2024-02-21T02:48:17;9.52;;;4.97;;
21979;SDS011;11154;48.558;9.234;2024-02-21T02:50:19;8.75;;;4.80;;
21979;SDS011;11154;48.558;9.234;2024-02-21T02:52:20;8.48;;;4.85;;
21979;SDS011;11154;48.558;9.234;2024-02-21T02:54:22;11.25;;;5.05;;
21979;SDS011;11154;48.558;9.234;2024-02-21T02:56:25;8.05;;;4.75;;
21979;SDS011;11154;48.558;9.234;2024-02-21T02:58:28;7.70;;;4.60;;
21979;SDS011;11154;48.558;9.234;2024-02-21T03:00:29;9.77;;;4.57;;
21979;SDS011;11154;48.558;9.234;2024-02-21T03:02:31;9.75;;;5.05;;
21979;SDS011;11154;48.558;9.234;2024-02-21T03:04:32;10.10;;;4.93;;
21979;SDS011;11154;48.558;9.234;2024-02-21T03:06:33;7.30;;;4.22;;
21979;SDS011;11154;48.558;9.234;2024-02-21T03:08:35;10.75;;;5.45;;
21979;SDS011;11154;48.558;9.234;2024-02-21T03:10:36;8.45;;;4.47;;
21979;SDS011;11154;48.558;9.234;2024-02-21T03:12:39;8.23;;;4.90;;
21979;SDS011;11154;48.558;9.234;2024-02-21T03:14:40;9.88;;;4.78;;
21979;SDS011;11154;48.558;9.234;2024-02-21T03:16:41;8.13;;;4.40;;
21979;SDS011;11154;48.558;9.234;2024-02-21T03:18:43;8.95;;;4.70;;
21979;SDS011;11154;48.558;9.234;2024-02-21T03:20:45;8.95;;;4.50;;
21979;SDS011;11154;48.558;9.234;2024-02-21T03:22:46;11.30;;;4.97;;
21979;SDS011;11154;48.558;9.234;2024-02-21T03:24:47;8.95;;;4.90;;
21979;SDS011;11154;48.558;9.234;2024-02-21T03:26:48;10.02;;;4.45;;
21979;SDS011;11154;48.558;9.234;2024-02-21T03:28:52;9.23;;;4.90;;
21979;SDS011;11154;48.558;9.234;2024-02-21T03:30:53;9.30;;;4.63;;
21979;SDS011;11154;48.558;9.234;2024-02-21T03:32:54;9.50;;;4.35;;
21979;SDS011;11154;48.558;9.234;2024-02-21T03:34:56;8.07;;;4.18;;
21979;SDS011;11154;48.558;9.234;2024-02-21T03:36:57;10.35;;;4.32;;
21979;SDS011;11154;48.558;9.234;2024-02-21T03:38:59;9.68;;;4.43;;
21979;SDS011;11154;48.558;9.234;2024-02-21T03:41:00;8.32;;;4.55;;
21979;SDS011;11154;48.558;9.234;2024-02-21T03:43:02;8.55;;;4.10;;
21979;SDS011;11154;48.558;9.234;2024-02-21T03:45:07;10.52;;;5.20;;
21979;SDS011;11154;48.558;9.234;2024-02-21T03:47:09;11.60;;;6.35;;
21979;SDS011;11154;48.558;9.234;2024-02-21T03:49:11;9.38;;;4.78;;
21979;SDS011;11154;48.558;9.234;2024-02-21T03:51:13;9.90;;;4.30;;
21979;SDS011;11154;48.558;9.234;2024-02-21T03:53:15;11.60;;;4.20;;
21979;SDS011;11154;48.558;9.234;2024-02-21T03:55:17;11.00;;;4.18;;
21979;SDS011;11154;48.558;9.234;2024-02-21T03:57:18;11.63;;;4.13;;
21979;SDS011;11154;48.558;9.234;2024-02-21T03:59:19;6.93;;;4.13;;
21979;SDS011;11154;48.558;9.234;2024-02-21T04:01:22;8.63;;;4.30;;
21979;SDS011;11154;48.558;9.234;2024-02-21T04:03:23;10.43;;;3.95;;
21979;SDS011;11154;48.558;9.234;2024-02-21T04:05:24;11.73;;;4.18;;
21979;SDS011;11154;48.558;9.234;2024-02-21T04:07:26;9.35;;;3.63;;
21979;SDS011;11154;48.558;9.234;2024-02-21T04:09:27;10.77;;;3.80;;
21979;SDS011;11154;48.558;9.234;2024-02-21T04:11:29;9.57;;;3.70;;
21979;SDS011;11154;48.558;9.234;2024-02-21T04:13:30;8.98;;;3.92;;
21979;SDS011;11154;48.558;9.234;2024-02-21T04:15:32;6.93;;;3.38;;
21979;SDS011;11154;48.558;9.234;2024-02-21T04:17:35;10.30;;;3.28;;
21979;SDS011;11154;48.558;9.234;2024-02-21T04:19:37;8.82;;;3.10;;
21979;SDS011;11154;48.558;9.234;2024-02-21T04:21:38;12.27;;;3.47;;
21979;SDS011;11154;48.558;9.234;2024-02-21T04:23:40;7.05;;;3.08;;
21979;SDS011;11154;48.558;9.234;2024-02-21T04:25:40;7.50;;;2.97;;
21979;SDS011;11154;48.558;9.234;2024-02-21T04:27:42;9.73;;;3.05;;
21979;SDS011;11154;48.558;9.234;2024-02-21T04:29:44;25.80;;;3.75;;
21979;SDS011;11154;48.558;9.234;2024-02-21T04:31:45;5.43;;;2.70;;
21979;SDS011;11154;48.558;9.234;2024-02-21T04:33:48;10.00;;;3.53;;
21979;SDS011;11154;48.558;9.234;2024-02-21T04:35:50;9.30;;;3.47;;
21979;SDS011;11154;48.558;9.234;2024-02-21T04:37:52;6.28;;;3.13;;
21979;SDS011;11154;48.558;9.234;2024-02-21T04:39:53;8.88;;;3.15;;
21979;SDS011;11154;48.558;9.234;2024-02-21T04:41:55;7.03;;;2.80;;
21979;SDS011;11154;48.558;9.234;2024-02-21T04:43:56;7.35;;;2.95;;
21979;SDS011;11154;48.558;9.234;2024-02-21T04:45:58;8.52;;;2.78;;
21979;SDS011;11154;48.558;9.234;2024-02-21T04:48:00;9.23;;;3.33;;
21979;SDS011;11154;48.558;9.234;2024-02-21T04:50:03;5.65;;;2.50;;
21979;SDS011;11154;48.558;9.234;2024-02-21T04:52:06;11.55;;;3.88;;
21979;SDS011;11154;48.558;9.234;2024-02-21T04:54:07;7.95;;;3.05;;
21979;SDS011;11154;48.558;9.234;2024-02-21T04:56:09;9.25;;;2.85;;
21979;SDS011;11154;48.558;9.234;2024-02-21T04:58:11;5.72;;;2.55;;
21979;SDS011;11154;48.558;9.234;2024-02-21T05:00:12;9.38;;;2.72;;
21979;SDS011;11154;48.558;9.234;2024-02-21T05:02:14;6.80;;;3.03;;
21979;SDS011;11154;48.558;9.234;2024-02-21T05:04:16;6.35;;;3.03;;
21979;SDS011;11154;48.558;9.234;2024-02-21T05:06:19;6.30;;;2.25;;
21979;SDS011;11154;48.558;9.234;2024-02-21T05:08:20;8.20;;;3.15;;
21979;SDS011;11154;48.558;9.234;2024-02-21T05:10:22;7.72;;;3.30;;
21979;SDS011;11154;48.558;9.234;2024-02-21T05:12:23;10.45;;;5.82;;
21979;SDS011;11154;48.558;9.234;2024-02-21T05:14:24;11.18;;;5.55;;
21979;SDS011;11154;48.558;9.234;2024-02-21T05:16:26;7.47;;;3.55;;
21979;SDS011;11154;48.558;9.234;2024-02-21T05:18:28;8.85;;;3.33;;
21979;SDS011;11154;48.558;9.234;2024-02-21T05:20:30;6.93;;;3.63;;
21979;SDS011;11154;48.558;9.234;2024-02-21T05:22:33;7.43;;;3.58;;
21979;SDS011;11154;48.558;9.234;2024-02-21T05:24:34;7.75;;;3.50;;
21979;SDS011;11154;48.558;9.234;2024-02-21T05:26:36;13.15;;;5.35;;
21979;SDS011;11154;48.558;9.234;2024-02-21T05:28:38;7.82;;;5.10;;
21979;SDS011;11154;48.558;9.234;2024-02-21T05:30:39;10.82;;;3.92;;
21979;SDS011;11154;48.558;9.234;2024-02-21T05:32:43;9.35;;;4.07;;
21979;SDS011;11154;48.558;9.234;2024-02-21T05:34:44;7.40;;;3.38;;
21979;SDS011;11154;48.558;9.234;2024-02-21T05:36:49;6.93;;;3.40;;
21979;SDS011;11154;48.558;9.234;2024-02-21T05:38:51;8.90;;;3.00;;
21979;SDS011;11154;48.558;9.234;2024-02-21T05:40:53;4.97;;;2.58;;
21979;SDS011;11154;48.558;9.234;2024-02-21T05:42:55;6.88;;;2.78;;
21979;SDS011;11154;48.558;9.234;2024-02-21T05:44:57;4.82;;;2.97;;
21979;SDS011;11154;48.558;9.234;2024-02-21T05:46:59;8.57;;;2.60;;
21979;SDS011;11154;48.558;9.234;2024-02-21T05:49:01;10.77;;;3.30;;
21979;SDS011;11154;48.558;9.234;2024-02-21T05:51:03;5.32;;;2.78;;
21979;SDS011;11154;48.558;9.234;2024-02-21T05:53:05;7.18;;;2.90;;
21979;SDS011;11154;48.558;9.234;2024-02-21T05:55:08;5.85;;;2.58;;
21979;SDS011;11154;48.558;9.234;2024-02-21T05:57:10;9.18;;;3.03;;
21979;SDS011;11154;48.558;9.234;2024-02-21T05:59:12;6.15;;;2.65;;
21979;SDS011;11154;48.558;9.234;2024-02-21T06:01:13;6.68;;;2.97;;
21979;SDS011;11154;48.558;9.234;2024-02-21T06:03:14;6.32;;;2.72;;
21979;SDS011;11154;48.558;9.234;2024-02-21T06:05:16;8.27;;;2.85;;
21979;SDS011;11154;48.558;9.234;2024-02-21T06:07:18;11.60;;;2.70;;
21979;SDS011;11154;48.558;9.234;2024-02-21T06:09:19;6.22;;;2.58;;
21979;SDS011;11154;48.558;9.234;2024-02-21T06:11:22;10.32;;;3.05;;
21979;SDS011;11154;48.558;9.234;2024-02-21T06:13:24;5.07;;;2.22;;
21979;SDS011;11154;48.558;9.234;2024-02-21T06:15:25;6.90;;;2.63;;
21979;SDS011;11154;48.558;9.234;2024-02-21T06:17:27;9.50;;;3.00;;
21979;SDS011;11154;48.558;9.234;2024-02-21T06:19:29;7.57;;;2.50;;
21979;SDS011;11154;48.558;9.234;2024-02-21T06:21:29;5.13;;;2.45;;
21979;SDS011;11154;48.558;9.234;2024-02-21T06:23:31;7.80;;;2.92;;
21979;SDS011;11154;48.558;9.234;2024-02-21T06:25:33;6.45;;;2.33;;
21979;SDS011;11154;48.558;9.234;2024-02-21T06:27:36;9.07;;;2.58;;
21979;SDS011;11154;48.558;9.234;2024-02-21T06:29:38;5.70;;;2.58;;
21979;SDS011;11154;48.558;9.234;2024-02-21T06:31:39;7.57;;;3.00;;
21979;SDS011;11154;48.558;9.234;2024-02-21T06:33:41;8.35;;;2.70;;
21979;SDS011;11154;48.558;9.234;2024-02-21T06:35:43;7.80;;;2.90;;
21979;SDS011;11154;48.558;9.234;2024-02-21T06:37:47;10.93;;;3.70;;
21979;SDS011;11154;48.558;9.234;2024-02-21T06:39:51;10.35;;;3.20;;
21979;SDS011;11154;48.558;9.234;2024-02-21T06:41:52;11.13;;;3.55;;
21979;SDS011;11154;48.558;9.234;2024-02-21T06:43:56;9.70;;;3.22;;
21979;SDS011;11154;48.558;9.234;2024-02-21T06:45:57;7.55;;;3.03;;
21979;SDS011;11154;48.558;9.234;2024-02-21T06:47:59;7.88;;;3.47;;
21979;SDS011;11154;48.558;9.234;2024-02-21T06:50:01;9.50;;;3.15;;
21979;SDS011;11154;48.558;9.234;2024-02-21T06:52:03;9.85;;;2.72;;
21979;SDS011;11154;48.558;9.234;2024-02-21T06:54:05;9.18;;;2.72;;
21979;SDS011;11154;48.558;9.234;2024-02-21T06:56:07;7.85;;;3.10;;
21979;SDS011;11154;48.558;9.234;2024-02-21T06:58:08;7.22;;;2.90;;
21979;SDS011;11154;48.558;9.234;2024-02-21T07:00:14;8.93;;;2.95;;
21979;SDS011;11154;48.558;9.234;2024-02-21T07:02:16;10.85;;;3.67;;
21979;SDS011;11154;48.558;9.234;2024-02-21T07:04:18;9.70;;;4.18;;
21979;SDS011;11154;48.558;9.234;2024-02-21T07:06:19;8.80;;;3.85;;
21979;SDS011;11154;48.558;9.234;2024-02-21T07:08:20;8.18;;;4.00;;
21979;SDS011;11154;48.558;9.234;2024-02-21T07:10:21;7.57;;;4.10;;
21979;SDS011;11154;48.558;9.234;2024-02-21T07:12:23;11.82;;;3.53;;
21979;SDS011;11154;48.558;9.234;2024-02-21T07:14:25;7.18;;;3.60;;
21979;SDS011;11154;48.558;9.234;2024-02-21T07:16:28;8.77;;;3.83;;
21979;SDS011;11154;48.558;9.234;2024-02-21T07:18:29;7.40;;;3.38;;
21979;SDS011;11154;48.558;9.234;2024-02-21T07:20:30;6.97;;;2.80;;
21979;SDS011;11154;48.558;9.234;2024-02-21T07:22:33;12.07;;;3.17;;
21979;SDS011;11154;48.558;9.234;2024-02-21T07:24:35;6.90;;;3.38;;
21979;SDS011;11154;48.558;9.234;2024-02-21T07:26:40;7.93;;;3.13;;
21979;SDS011;11154;48.558;9.234;2024-02-21T07:28:42;7.90;;;3.30;;
21979;SDS011;11154;48.558;9.234;2024-02-21T07:30:44;8.15;;;3.40;;
21979;SDS011;11154;48.558;9.234;2024-02-21T07:32:50;7.30;;;3.40;;
21979;SDS011;11154;48.558;9.234;2024-02-21T07:34:51;9.18;;;3.22;;
21979;SDS011;11154;48.558;9.234;2024-02-21T07:36:53;8.80;;;3.58;;
21979;SDS011;11154;48.558;9.234;2024-02-21T07:38:54;8.82;;;3.67;;
21979;SDS011;11154;48.558;9.234;2024-02-21T07:40:56;8.32;;;3.83;;
21979;SDS011;11154;48.558;9.234;2024-02-21T07:42:58;9.85;;;4.05;;
21979;SDS011;11154;48.558;9.234;2024-02-21T07:44:59;11.55;;;3.92;;
21979;SDS011;11154;48.558;9.234;2024-02-21T07:47:00;5.80;;;3.05;;
21979;SDS011;11154;48.558;9.234;2024-02-21T07:49:03;6.57;;;3.03;;
21979;SDS011;11154;48.558;9.234;2024-02-21T07:51:05;8.80;;;3.33;;
21979;SDS011;11154;48.558;9.234;2024-02-21T07:53:07;7.85;;;3.15;;
21979;SDS011;11154;48.558;9.234;2024-02-21T07:55:08;10.50;;;3.33;;
21979;SDS011;11154;48.558;9.234;2024-02-21T07:57:11;6.57;;;2.83;;
21979;SDS011;11154;48.558;9.234;2024-02-21T07:59:12;9.77;;;3.17;;
21979;SDS011;11154;48.558;9.234;2024-02-21T08:01:18;7.40;;;3.38;;
21979;SDS011;11154;48.558;9.234;2024-02-21T08:03:19;10.95;;;3.40;;
21979;SDS011;11154;48.558;9.234;2024-02-21T08:05:22;7.25;;;2.83;;
21979;SDS011;11154;48.558;9.234;2024-02-21T08:07:24;8.70;;;3.10;;
21979;SDS011;11154;48.558;9.234;2024-02-21T08:09:29;10.10;;;3.25;;
21979;SDS011;11154;48.558;9.234;2024-02-21T08:11:31;6.80;;;2.80;;
21979;SDS011;11154;48.558;9.234;2024-02-21T08:13:32;6.55;;;2.55;;
21979;SDS011;11154;48.558;9.234;2024-02-21T08:15:34;9.43;;;2.97;;
21979;SDS011;11154;48.558;9.234;2024-02-21T08:17:35;6.65;;;3.20;;
21979;SDS011;11154;48.558;9.234;2024-02-21T08:19:37;10.15;;;3.22;;
21979;SDS011;11154;48.558;9.234;2024-02-21T08:21:40;9.55;;;3.60;;
21979;SDS011;11154;48.558;9.234;2024-02-21T08:23:40;8.35;;;3.70;;
21979;SDS011;11154;48.558;9.234;2024-02-21T08:25:42;5.68;;;3.13;;
21979;SDS011;11154;48.558;9.234;2024-02-21T08:27:43;12.75;;;2.88;;
21979;SDS011;11154;48.558;9.234;2024-02-21T08:29:45;12.23;;;3.70;;
21979;SDS011;11154;48.558;9.234;2024-02-21T08:31:47;6.15;;;2.88;;
21979;SDS011;11154;48.558;9.234;2024-02-21T08:33:49;8.90;;;3.28;;
21979;SDS011;11154;48.558;9.234;2024-02-21T08:35:51;9.25;;;3.50;;
21979;SDS011;11154;48.558;9.234;2024-02-21T08:37:54;12.00;;;2.88;;
21979;SDS011;11154;48.558;9.234;2024-02-21T08:39:55;6.88;;;2.90;;
21979;SDS011;11154;48.558;9.234;2024-02-21T08:41:57;9.82;;;3.08;;
21979;SDS011;11154;48.558;9.234;2024-02-21T08:43:58;8.00;;;3.30;;
21979;SDS011;11154;48.558;9.234;2024-02-21T08:45:59;11.43;;;3.55;;
21979;SDS011;11154;48.558;9.234;2024-02-21T08:48:01;6.78;;;3.40;;
21979;SDS011;11154;48.558;9.234;2024-02-21T08:50:03;11.18;;;3.20;;
21979;SDS011;11154;48.558;9.234;2024-02-21T08:52:07;6.13;;;3.15;;
21979;SDS011;11154;48.558;9.234;2024-02-21T08:54:09;9.55;;;3.10;;
21979;SDS011;11154;48.558;9.234;2024-02-21T08:56:11;9.00;;;3.08;;
21979;SDS011;11154;48.558;9.234;2024-02-21T08:58:13;7.85;;;2.60;;
21979;SDS011;11154;48.558;9.234;2024-02-21T09:00:15;10.10;;;3.00;;
21979;SDS011;11154;48.558;9.234;2024-02-21T09:02:17;6.15;;;2.72;;
21979;SDS011;11154;48.558;9.234;2024-02-21T09:04:19;6.38;;;3.05;;
21979;SDS011;11154;48.558;9.234;2024-02-21T09:06:20;8.57;;;3.60;;
21979;SDS011;11154;48.558;9.234;2024-02-21T09:08:21;6.25;;;2.78;;
21979;SDS011;11154;48.558;9.234;2024-02-21T09:10:25;7.47;;;2.90;;
21979;SDS011;11154;48.558;9.234;2024-02-21T09:12:27;5.82;;;2.60;;
21979;SDS011;11154;48.558;9.234;2024-02-21T09:14:28;6.82;;;2.55;;
21979;SDS011;11154;48.558;9.234;2024-02-21T09:16:30;7.70;;;2.63;;
21979;SDS011;11154;48.558;9.234;2024-02-21T09:18:32;6.25;;;2.38;;
21979;SDS011;11154;48.558;9.234;2024-02-21T09:20:33;6.00;;;2.40;;
21979;SDS011;11154;48.558;9.234;2024-02-21T09:22:35;7.10;;;3.13;;
21979;SDS011;11154;48.558;9.234;2024-02-21T09:24:38;7.38;;;2.63;;
21979;SDS011;11154;48.558;9.234;2024-02-21T09:26:40;6.75;;;2.83;;
21979;SDS011;11154;48.558;9.234;2024-02-21T09:28:41;5.75;;;2.67;;
21979;SDS011;11154;48.558;9.234;2024-02-21T09:30:44;8.10;;;2.65;;
21979;SDS011;11154;48.558;9.234;2024-02-21T09:32:45;9.18;;;3.03;;
21979;SDS011;11154;48.558;9.234;2024-02-21T09:34:47;6.03;;;2.72;;
21979;SDS011;11154;48.558;9.234;2024-02-21T09:36:49;7.38;;;2.38;;
21979;SDS011;11154;48.558;9.234;2024-02-21T09:38:51;7.30;;;2.85;;
21979;SDS011;11154;48.558;9.234;2024-02-21T09:40:55;8.52;;;3.00;;
21979;SDS011;11154;48.558;9.234;2024-02-21T09:43:03;8.57;;;3.08;;
21979;SDS011;11154;48.558;9.234;2024-02-21T09:45:07;6.47;;;2.50;;
21979;SDS011;11154;48.558;9.234;2024-02-21T09:47:15;7.95;;;2.92;;
21979;SDS011;11154;48.558;9.234;2024-02-21T09:49:21;12.52;;;2.75;;
21979;SDS011;11154;48.558;9.234;2024-02-21T09:51:31;8.05;;;2.72;;
21979;SDS011;11154;48.558;9.234;2024-02-21T09:53:36;6.38;;;2.38;;
21979;SDS011;11154;48.558;9.234;2024-02-21T09:55:39;8.40;;;2.90;;
21979;SDS011;11154;48.558;9.234;2024-02-21T09:57:41;7.28;;;2.47;;
21979;SDS011;11154;48.558;9.234;2024-02-21T09:59:46;9.25;;;2.60;;
21979;SDS011;11154;48.558;9.234;2024-02-21T10:01:47;6.53;;;3.20;;
21979;SDS011;11154;48.558;9.234;2024-02-21T10:03:50;9.73;;;2.92;;
21979;SDS011;11154;48.558;9.234;2024-02-21T10:05:52;8.55;;;2.65;;
21979;SDS011;11154;48.558;9.234;2024-02-21T10:07:52;9.02;;;2.95;;
21979;SDS011;11154;48.558;9.234;2024-02-21T10:10:00;6.85;;;2.95;;
21979;SDS011;11154;48.558;9.234;2024-02-21T10:12:09;7.55;;;3.03;;
21979;SDS011;11154;48.558;9.234;2024-02-21T10:14:11;9.48;;;3.03;;
21979;SDS011;11154;48.558;9.234;2024-02-21T10:16:14;7.20;;;2.65;;
21979;SDS011;11154;48.558;9.234;2024-02-21T10:18:17;5.75;;;2.20;;
21979;SDS011;11154;48.558;9.234;2024-02-21T10:20:19;8.07;;;3.03;;
21979;SDS011;11154;48.558;9.234;2024-02-21T10:22:20;8.82;;;2.38;;
21979;SDS011;11154;48.558;9.234;2024-02-21T10:24:26;9.85;;;3.30;;
21979;SDS011;11154;48.558;9.234;2024-02-21T10:26:27;9.38;;;2.83;;
21979;SDS011;11154;48.558;9.234;2024-02-21T10:28:29;8.95;;;2.90;;
21979;SDS011;11154;48.558;9.234;2024-02-21T10:30:31;6.60;;;2.42;;
21979;SDS011;11154;48.558;9.234;2024-02-21T10:32:34;10.65;;;2.58;;
21979;SDS011;11154;48.558;9.234;2024-02-21T10:34:36;5.53;;;2.75;;
21979;SDS011;11154;48.558;9.234;2024-02-21T10:36:38;5.57;;;2.55;;
21979;SDS011;11154;48.558;9.234;2024-02-21T10:38:40;8.23;;;2.53;;
21979;SDS011;11154;48.558;9.234;2024-02-21T10:40:41;6.22;;;2.40;;
21979;SDS011;11154;48.558;9.234;2024-02-21T10:42:44;7.50;;;2.55;;
21979;SDS011;11154;48.558;9.234;2024-02-21T10:44:47;7.13;;;2.53;;
21979;SDS011;11154;48.558;9.234;2024-02-21T10:46:52;5.13;;;2.33;;
21979;SDS011;11154;48.558;9.234;2024-02-21T10:48:59;5.65;;;2.40;;
21979;SDS011;11154;48.558;9.234;2024-02-21T10:51:09;8.70;;;2.70;;
21979;SDS011;11154;48.558;9.234;2024-02-21T10:53:17;6.57;;;2.57;;
21979;SDS011;11154;48.558;9.234;2024-02-21T10:55:26;7.90;;;2.50;;
21979;SDS011;11154;48.558;9.234;2024-02-21T10:57:36;10.82;;;2.60;;
21979;SDS011;11154;48.558;9.234;2024-02-21T10:59:39;5.45;;;2.28;;
21979;SDS011;11154;48.558;9.234;2024-02-21T11:01:40;7.53;;;2.67;;
21979;SDS011;11154;48.558;9.234;2024-02-21T11:03:42;7.88;;;2.33;;
21979;SDS011;11154;48.558;9.234;2024-02-21T11:05:46;11.15;;;2.63;;
21979;SDS011;11154;48.558;9.234;2024-02-21T11:07:49;9.32;;;2.33;;
21979;SDS011;11154;48.558;9.234;2024-02-21T11:09:52;6.03;;;2.60;;
21979;SDS011;11154;48.558;9.234;2024-02-21T11:11:55;6.55;;;2.60;;
21979;SDS011;11154;48.558;9.234;2024-02-21T11:14:05;9.38;;;2.40;;
21979;SDS011;11154;48.558;9.234;2024-02-21T11:16:11;8.43;;;2.35;;
21979;SDS011;11154;48.558;9.234;2024-02-21T11:18:12;8.07;;;2.88;;
21979;SDS011;11154;48.558;9.234;2024-02-21T11:20:31;6.35;;;2.92;;
21979;SDS011;11154;48.558;9.234;2024-02-21T11:22:40;8.10;;;2.53;;
21979;SDS011;11154;48.558;9.234;2024-02-21T11:24:42;11.18;;;2.65;;
21979;SDS011;11154;48.558;9.234;2024-02-21T11:26:44;7.03;;;2.20;;
21979;SDS011;11154;48.558;9.234;2024-02-21T11:28:55;4.60;;;2.15;;
21979;SDS011;11154;48.558;9.234;2024-02-21T11:31:06;7.95;;;2.50;;
21979;SDS011;11154;48.558;9.234;2024-02-21T11:33:07;6.93;;;2.13;;
21979;SDS011;11154;48.558;9.234;2024-02-21T11:35:08;3.95;;;1.98;;
21979;SDS011;11154;48.558;9.234;2024-02-21T11:37:20;7.22;;;2.60;;
21979;SDS011;11154;48.558;9.234;2024-02-21T11:39:23;7.43;;;2.20;;
21979;SDS011;11154;48.558;9.234;2024-02-21T11:41:25;5.15;;;2.20;;
21979;SDS011;11154;48.558;9.234;2024-02-21T11:43:27;5.80;;;2.05;;
21979;SDS011;11154;48.558;9.234;2024-02-21T11:45:29;8.50;;;2.05;;
21979;SDS011;11154;48.558;9.234;2024-02-21T11:47:32;6.20;;;2.47;;
21979;SDS011;11154;48.558;9.234;2024-02-21T11:49:36;7.05;;;2.28;;
21979;SDS011;11154;48.558;9.234;2024-02-21T11:51:38;8.40;;;1.83;;
21979;SDS011;11154;48.558;9.234;2024-02-21T11:53:40;5.00;;;1.67;;
21979;SDS011;11154;48.558;9.234;2024-02-21T11:55:44;6.88;;;2.00;;
21979;SDS011;11154;48.558;9.234;2024-02-21T11:57:47;5.15;;;1.92;;
21979;SDS011;11154;48.558;9.234;2024-02-21T11:59:49;6.78;;;1.80;;
21979;SDS011;11154;48.558;9.234;2024-02-21T12:01:54;5.72;;;1.92;;
21979;SDS011;11154;48.558;9.234;2024-02-21T12:03:57;7.45;;;2.05;;
21979;SDS011;11154;48.558;9.234;2024-02-21T12:05:59;5.90;;;1.95;;
21979;SDS011;11154;48.558;9.234;2024-02-21T12:08:01;4.63;;;1.88;;
21979;SDS011;11154;48.558;9.234;2024-02-21T12:10:01;4.00;;;1.65;;
21979;SDS011;11154;48.558;9.234;2024-02-21T12:12:05;8.38;;;1.80;;
21979;SDS011;11154;48.558;9.234;2024-02-21T12:14:07;4.60;;;1.65;;
21979;SDS011;11154;48.558;9.234;2024-02-21T12:16:09;5.85;;;2.03;;